Time;durP1;ratioP1;P1;durP2;ratioP2;P2;SDS_P1;SDS_P2;PMS_P1;PMS_P2;Temp;Humidity;BMP_temperature;BMP_pressure;BME280_temperature;BME280_humidity;BME280_pressure;Samples;Min_cycle;Max_cycle;Signal;HPM_P1;HPM_P2
2022/08/28 00:00:22;;;;;;;12.90;10.27;;;19.20;99.90;;;;;;2114708;28;20032;-69
2022/08/28 00:01:23;;;;;;;12.23;10.05;;;19.20;99.90;;;;;;2115431;28;20031;-71
2022/08/28 00:02:24;;;;;;;13.52;10.48;;;19.20;99.90;;;;;;2114633;28;20811;-71
2022/08/28 00:03:25;;;;;;;16.42;11.68;;;19.20;99.90;;;;;;2114531;28;20020;-71
2022/08/28 00:04:26;;;;;;;12.60;11.30;;;19.20;99.90;;;;;;2114512;28;20032;-70
2022/08/28 00:05:29;;;;;;;13.07;11.05;;;19.10;99.90;;;;;;2114029;28;20041;-70
2022/08/28 00:06:30;;;;;;;11.88;10.00;;;19.10;99.90;;;;;;2114474;28;20027;-70
2022/08/28 00:07:31;;;;;;;11.60;9.60;;;19.10;99.90;;;;;;2114889;28;20078;-69
2022/08/28 00:08:31;;;;;;;12.65;11.02;;;19.10;99.90;;;;;;2113983;28;20023;-69
2022/08/28 00:09:32;;;;;;;13.88;11.65;;;19.10;99.90;;;;;;2114499;28;20020;-70
2022/08/28 00:10:33;;;;;;;12.02;10.25;;;19.20;99.90;;;;;;2115227;28;20541;-70
2022/08/28 00:11:37;;;;;;;13.52;11.00;;;19.10;99.90;;;;;;2114565;28;20032;-71
2022/08/28 00:12:38;;;;;;;13.00;11.52;;;19.10;99.90;;;;;;2115403;28;20111;-70
2022/08/28 00:13:39;;;;;;;13.88;12.43;;;19.10;99.90;;;;;;2114161;28;20051;-70
2022/08/28 00:14:40;;;;;;;18.80;12.75;;;19.10;99.90;;;;;;2105846;28;20039;-70
2022/08/28 00:15:41;;;;;;;17.25;13.52;;;19.10;99.90;;;;;;2114507;28;20050;-69
2022/08/28 00:16:41;;;;;;;18.88;15.30;;;19.00;99.90;;;;;;2115169;28;20054;-70
2022/08/28 00:17:43;;;;;;;17.70;13.50;;;19.00;99.90;;;;;;2113795;28;20401;-70
2022/08/28 00:18:44;;;;;;;23.23;16.98;;;19.00;99.90;;;;;;2114558;28;20034;-70
2022/08/28 00:19:45;;;;;;;19.50;16.20;;;19.00;99.90;;;;;;2116051;28;20032;-70
2022/08/28 00:20:46;;;;;;;22.63;16.67;;;18.90;99.90;;;;;;2116289;28;20112;-70
2022/08/28 00:21:47;;;;;;;23.60;17.80;;;18.90;99.90;;;;;;2107672;28;20032;-70
2022/08/28 00:22:49;;;;;;;21.88;17.98;;;18.90;99.90;;;;;;2107433;28;20035;-71
2022/08/28 00:23:52;;;;;;;20.25;16.17;;;18.90;99.90;;;;;;2106550;28;20032;-70
2022/08/28 00:24:53;;;;;;;19.48;16.27;;;18.90;99.90;;;;;;2107095;28;20024;-70
2022/08/28 00:25:54;;;;;;;23.23;18.65;;;18.90;99.90;;;;;;2114545;28;20105;-70
2022/08/28 00:28:14;;;;;;;28.05;20.40;;;18.90;99.90;;;;;;2114258;28;20032;-70
2022/08/28 00:29:15;;;;;;;27.80;20.80;;;18.90;99.90;;;;;;2114229;28;20027;-70
2022/08/28 00:30:18;;;;;;;23.75;18.60;;;18.80;99.90;;;;;;2113517;28;20473;-70
2022/08/28 00:31:18;;;;;;;30.13;22.20;;;18.80;99.90;;;;;;2113751;28;20556;-69
2022/08/28 00:32:22;;;;;;;27.77;21.83;;;18.80;99.90;;;;;;2114188;28;20023;-70
2022/08/28 00:33:33;;;;;;;28.38;21.17;;;18.80;99.90;;;;;;2114257;28;20016;-70
2022/08/28 00:34:34;;;;;;;28.00;21.52;;;18.80;99.90;;;;;;2114338;28;20072;-70
2022/08/28 00:35:35;;;;;;;29.88;21.77;;;18.80;99.90;;;;;;2114494;28;20027;-70
2022/08/28 00:36:37;;;;;;;22.75;19.52;;;18.80;99.90;;;;;;2105173;28;20116;-70
2022/08/28 00:37:38;;;;;;;30.58;22.05;;;18.70;99.90;;;;;;2104916;28;20036;-70
2022/08/28 00:38:39;;;;;;;29.63;21.33;;;18.70;99.90;;;;;;2113641;28;20490;-70
2022/08/28 00:39:40;;;;;;;29.05;21.55;;;18.70;99.90;;;;;;2114046;28;20028;-69
2022/08/28 00:40:43;;;;;;;28.13;21.00;;;18.70;99.90;;;;;;2113961;28;20028;-70
2022/08/28 00:41:43;;;;;;;26.25;20.60;;;18.70;99.90;;;;;;2114037;28;20435;-70
2022/08/28 00:42:47;;;;;;;28.13;21.38;;;18.70;99.90;;;;;;2115223;28;20032;-71
2022/08/28 00:44:06;;;;;;;27.00;21.00;;;18.70;99.90;;;;;;2114073;28;20579;-71
2022/08/28 00:45:08;;;;;;;27.27;21.02;;;18.70;99.90;;;;;;2114330;28;20027;-71
2022/08/28 00:46:13;;;;;;;26.92;20.13;;;18.70;99.90;;;;;;2113843;28;20023;-70
2022/08/28 00:47:13;;;;;;;29.80;21.52;;;18.70;99.90;;;;;;2114049;28;20102;-71
2022/08/28 00:48:14;;;;;;;26.63;19.42;;;18.70;99.90;;;;;;2113630;28;20032;-71
2022/08/28 00:49:19;;;;;;;25.15;17.95;;;18.70;99.90;;;;;;2113692;28;20020;-70
2022/08/28 00:50:23;;;;;;;25.00;19.38;;;18.70;99.90;;;;;;2114727;28;20114;-71
2022/08/28 00:52:58;;;;;;;25.90;20.83;;;18.60;99.90;;;;;;2108754;27;20115;-70
2022/08/28 00:54:09;;;;;;;26.67;20.52;;;18.60;99.90;;;;;;2115033;28;20521;-71
2022/08/28 00:55:21;;;;;;;27.25;21.13;;;18.60;99.90;;;;;;2100125;28;20032;-70
2022/08/28 00:56:22;;;;;;;26.55;18.83;;;18.60;99.90;;;;;;2107645;28;20043;-70
2022/08/28 00:57:41;;;;;;;26.25;18.92;;;18.50;99.90;;;;;;2113773;28;20589;-71
2022/08/28 00:58:44;;;;;;;28.45;21.13;;;18.60;99.90;;;;;;2114502;28;20051;-70
2022/08/28 00:59:45;;;;;;;27.85;21.50;;;18.60;99.90;;;;;;2114645;28;20058;-70
2022/08/28 01:00:46;;;;;;;31.05;23.50;;;18.60;99.90;;;;;;2114776;28;20030;-71
2022/08/28 01:01:48;;;;;;;31.83;23.60;;;18.60;99.90;;;;;;2114421;28;20046;-70
2022/08/28 01:02:50;;;;;;;31.10;23.10;;;18.50;99.90;;;;;;2113979;28;20012;-70
2022/08/28 01:03:50;;;;;;;26.08;20.67;;;18.60;99.90;;;;;;2114382;28;20036;-70
2022/08/28 01:04:51;;;;;;;28.95;21.50;;;18.50;99.90;;;;;;2114626;28;20032;-70
2022/08/28 01:05:52;;;;;;;30.48;21.67;;;18.50;99.90;;;;;;2113928;28;20111;-70
2022/08/28 01:06:55;;;;;;;25.42;19.58;;;18.60;99.90;;;;;;2115316;28;20088;-70
2022/08/28 01:08:00;;;;;;;24.17;18.88;;;18.50;99.90;;;;;;2107192;28;20036;-70
2022/08/28 01:09:02;;;;;;;27.02;20.65;;;18.60;99.90;;;;;;2115717;27;20130;-69
2022/08/28 01:10:12;;;;;;;25.08;19.50;;;18.60;99.90;;;;;;2107594;28;20685;-70
2022/08/28 01:11:17;;;;;;;25.33;18.70;;;18.60;99.90;;;;;;2115887;28;20049;-70
2022/08/28 01:12:25;;;;;;;28.10;21.80;;;18.60;99.90;;;;;;2117399;28;20024;-70
2022/08/28 01:13:26;;;;;;;30.05;21.75;;;18.60;99.90;;;;;;2099988;28;20095;-69
2022/08/28 01:14:30;;;;;;;29.05;21.33;;;18.60;99.90;;;;;;2100908;28;20088;-70
2022/08/28 01:15:35;;;;;;;29.10;21.90;;;18.60;99.90;;;;;;2100491;28;20127;-70
2022/08/28 01:16:40;;;;;;;31.70;22.35;;;18.60;99.90;;;;;;2100499;28;20135;-69
2022/08/28 01:17:47;;;;;;;28.15;21.75;;;18.50;99.90;;;;;;2100865;28;20078;-69
2022/08/28 01:18:50;;;;;;;24.75;19.65;;;18.50;99.90;;;;;;2116413;28;20032;-70
2022/08/28 01:19:57;;;;;;;29.02;21.83;;;18.50;99.90;;;;;;2115666;28;20115;-69
2022/08/28 01:21:13;;;;;;;27.90;19.50;;;18.50;99.90;;;;;;2115613;28;20057;-69
2022/08/28 01:22:27;;;;;;;26.98;20.83;;;18.50;99.90;;;;;;2115035;27;20027;-69
2022/08/28 01:23:56;;;;;;;28.88;20.98;;;18.50;99.90;;;;;;2115735;28;20039;-70
2022/08/28 01:25:02;;;;;;;25.20;21.30;;;18.50;99.90;;;;;;2116352;28;20057;-70
2022/08/28 01:26:03;;;;;;;27.33;21.20;;;18.50;99.90;;;;;;2115119;28;20092;-70
2022/08/28 01:27:09;;;;;;;26.38;19.50;;;18.50;99.90;;;;;;2115576;28;20084;-69
2022/08/28 01:28:13;;;;;;;25.90;19.50;;;18.40;99.90;;;;;;2114953;28;20023;-69
2022/08/28 01:29:14;;;;;;;24.30;18.67;;;18.40;99.90;;;;;;2114734;28;20390;-69
2022/08/28 01:30:18;;;;;;;23.45;19.35;;;18.40;99.90;;;;;;2114238;28;20049;-69
2022/08/28 01:31:20;;;;;;;22.92;18.15;;;18.40;99.90;;;;;;2113872;28;20599;-69
2022/08/28 01:32:33;;;;;;;23.55;18.55;;;18.40;99.90;;;;;;2114055;28;20019;-69
2022/08/28 01:33:34;;;;;;;22.73;17.35;;;18.40;99.90;;;;;;2115575;28;20127;-69
2022/08/28 01:34:47;;;;;;;23.00;17.48;;;18.40;99.90;;;;;;2115161;28;20024;-71
2022/08/28 01:36:14;;;;;;;27.63;19.83;;;18.40;99.90;;;;;;2115268;27;20044;-69
2022/08/28 01:37:15;;;;;;;23.75;18.85;;;18.40;99.90;;;;;;2114044;28;20016;-70
2022/08/28 01:38:16;;;;;;;24.40;19.42;;;18.30;99.90;;;;;;2114639;28;20102;-69
2022/08/28 01:39:21;;;;;;;22.92;18.73;;;18.30;99.90;;;;;;2115230;28;20023;-70
2022/08/28 01:40:38;;;;;;;26.85;19.13;;;18.30;99.90;;;;;;2114582;28;20055;-69
2022/08/28 01:41:41;;;;;;;22.80;17.85;;;18.30;99.90;;;;;;2113587;28;20062;-69
2022/08/28 01:42:43;;;;;;;22.98;18.25;;;18.20;99.90;;;;;;2115481;28;20041;-70
2022/08/28 01:43:44;;;;;;;26.42;18.70;;;18.20;99.90;;;;;;2116442;28;20031;-70
2022/08/28 01:44:45;;;;;;;24.83;17.55;;;18.20;99.90;;;;;;2116217;28;20040;-71
2022/08/28 01:45:51;;;;;;;26.08;18.70;;;18.20;99.90;;;;;;2114346;28;20574;-68
2022/08/28 01:46:55;;;;;;;27.48;19.40;;;18.20;99.90;;;;;;2116007;27;20066;-69
2022/08/28 01:47:56;;;;;;;25.25;19.17;;;18.10;99.90;;;;;;2115524;28;20034;-68
2022/08/28 01:48:56;;;;;;;27.50;19.75;;;18.10;99.90;;;;;;2114328;28;20054;-68
2022/08/28 01:49:58;;;;;;;29.63;20.33;;;18.10;99.90;;;;;;2113911;28;20035;-70
2022/08/28 01:50:59;;;;;;;24.73;19.17;;;18.10;99.90;;;;;;2114363;28;20027;-68
2022/08/28 01:52:00;;;;;;;24.95;19.27;;;18.10;99.90;;;;;;2114174;28;20028;-71
2022/08/28 01:53:04;;;;;;;29.55;20.20;;;18.10;99.90;;;;;;2113796;28;20027;-68
2022/08/28 01:54:05;;;;;;;23.92;18.67;;;18.10;99.90;;;;;;2113855;28;20631;-69
2022/08/28 01:55:07;;;;;;;24.95;18.10;;;18.10;99.90;;;;;;2114531;28;20102;-68
2022/08/28 01:56:11;;;;;;;27.67;20.60;;;18.10;99.90;;;;;;2114588;28;20070;-68
2022/08/28 01:57:13;;;;;;;31.85;23.42;;;18.10;99.90;;;;;;2113894;28;20031;-69
2022/08/28 01:58:21;;;;;;;30.23;23.77;;;18.10;99.90;;;;;;2115009;28;20053;-70
2022/08/28 01:59:25;;;;;;;32.15;23.70;;;18.10;99.90;;;;;;2114874;28;20416;-69
2022/08/28 02:00:27;;;;;;;39.35;25.92;;;18.10;99.90;;;;;;2114704;28;20055;-70
2022/08/28 02:01:28;;;;;;;34.42;24.08;;;18.10;99.90;;;;;;2114965;28;20122;-69
2022/08/28 02:02:32;;;;;;;30.48;22.63;;;18.10;99.90;;;;;;2115352;27;20102;-69
2022/08/28 02:03:36;;;;;;;30.08;21.95;;;18.10;99.90;;;;;;2114772;28;20042;-70
2022/08/28 02:04:37;;;;;;;36.20;25.55;;;18.20;99.90;;;;;;2115544;27;20363;-70
2022/08/28 02:05:39;;;;;;;42.30;27.00;;;18.20;99.90;;;;;;2114965;28;20193;-69
2022/08/28 02:06:40;;;;;;;36.38;25.45;;;18.20;99.90;;;;;;2115296;27;20446;-68
2022/08/28 02:07:42;;;;;;;37.95;27.55;;;18.20;99.90;;;;;;2114232;28;20054;-68
2022/08/28 02:08:48;;;;;;;38.17;26.55;;;18.20;99.90;;;;;;2106096;28;20060;-70
2022/08/28 02:09:49;;;;;;;36.80;27.00;;;18.20;99.90;;;;;;2114113;28;20024;-69
2022/08/28 02:10:51;;;;;;;38.03;27.35;;;18.20;99.90;;;;;;2113781;28;20035;-69
2022/08/28 02:11:53;;;;;;;40.00;27.35;;;18.20;99.90;;;;;;2105600;28;20036;-69
2022/08/28 02:13:04;;;;;;;41.80;28.95;;;18.20;99.90;;;;;;2114474;28;20410;-70
2022/08/28 02:14:05;;;;;;;39.38;27.17;;;18.20;99.90;;;;;;2114658;28;20050;-70
2022/08/28 02:15:12;;;;;;;38.85;27.58;;;18.10;99.90;;;;;;2114444;28;20030;-69
2022/08/28 02:16:22;;;;;;;35.17;24.98;;;18.10;99.90;;;;;;2114411;28;20770;-69
2022/08/28 02:17:23;;;;;;;41.15;27.63;;;18.20;99.90;;;;;;2106318;28;20024;-69
2022/08/28 02:18:24;;;;;;;39.10;26.63;;;18.20;99.90;;;;;;2104336;28;20051;-69
2022/08/28 02:19:25;;;;;;;42.10;27.10;;;18.20;99.90;;;;;;2113275;28;20057;-68
2022/08/28 02:20:27;;;;;;;43.42;28.40;;;18.20;99.90;;;;;;2113407;28;20034;-67
2022/08/28 02:21:34;;;;;;;38.88;27.25;;;18.20;99.90;;;;;;2113266;28;20035;-71
2022/08/28 02:22:35;;;;;;;38.92;27.70;;;18.20;99.90;;;;;;2105361;28;20066;-69
2022/08/28 02:23:40;;;;;;;35.20;25.00;;;18.10;99.90;;;;;;2113147;28;20056;-69
2022/08/28 02:24:41;;;;;;;44.22;29.85;;;18.10;99.90;;;;;;2113812;28;20023;-69
2022/08/28 02:25:45;;;;;;;38.08;26.02;;;18.10;99.90;;;;;;2113937;28;20031;-69
2022/08/28 02:26:45;;;;;;;45.05;29.40;;;18.20;99.90;;;;;;2113261;28;20126;-69
2022/08/28 02:27:46;;;;;;;35.20;25.75;;;18.10;99.90;;;;;;2112667;28;20390;-70
2022/08/28 02:28:53;;;;;;;45.63;28.52;;;18.10;99.90;;;;;;2104642;28;20090;-69
2022/08/28 02:29:54;;;;;;;41.40;28.45;;;18.10;99.90;;;;;;2113047;28;20445;-69
2022/08/28 02:30:55;;;;;;;45.80;28.80;;;18.10;99.90;;;;;;2113207;28;20035;-69
2022/08/28 02:31:55;;;;;;;36.88;27.13;;;18.20;99.90;;;;;;2113406;28;20038;-69
2022/08/28 02:32:56;;;;;;;38.75;27.05;;;18.10;99.90;;;;;;2114177;28;20027;-69
2022/08/28 02:33:57;;;;;;;43.55;29.20;;;18.10;99.90;;;;;;2113568;28;20023;-69
2022/08/28 02:34:58;;;;;;;41.78;30.20;;;18.10;99.90;;;;;;2112920;28;20519;-69
2022/08/28 02:35:58;;;;;;;41.78;29.92;;;18.10;99.90;;;;;;2113212;28;20102;-68
2022/08/28 02:36:59;;;;;;;37.83;26.90;;;18.10;99.90;;;;;;2113376;28;20032;-69
2022/08/28 02:38:00;;;;;;;40.58;27.05;;;18.10;99.90;;;;;;2112967;28;20032;-69
2022/08/28 02:39:01;;;;;;;35.97;25.55;;;18.10;99.90;;;;;;2112996;28;20039;-70
2022/08/28 02:40:03;;;;;;;46.58;29.98;;;18.10;99.90;;;;;;2113405;28;20024;-69
2022/08/28 02:41:05;;;;;;;43.50;29.80;;;18.10;99.90;;;;;;2113059;28;20773;-69
2022/08/28 02:42:06;;;;;;;42.05;30.08;;;18.10;99.90;;;;;;2113274;28;20027;-69
2022/08/28 02:43:07;;;;;;;40.15;27.48;;;18.10;99.90;;;;;;2113223;28;20078;-69
2022/08/28 02:44:08;;;;;;;47.25;31.35;;;18.20;99.90;;;;;;2113152;28;20102;-69
2022/08/28 02:45:10;;;;;;;44.00;30.30;;;18.10;99.90;;;;;;2113188;28;20122;-69
2022/08/28 02:46:11;;;;;;;40.40;27.83;;;18.10;99.90;;;;;;2113331;28;20023;-69
2022/08/28 02:47:13;;;;;;;45.80;30.08;;;18.10;99.90;;;;;;2112962;28;20028;-69
2022/08/28 02:48:14;;;;;;;43.75;28.02;;;18.10;99.90;;;;;;2112426;28;20250;-69
2022/08/28 02:49:15;;;;;;;44.95;30.98;;;18.10;99.90;;;;;;2112475;28;20650;-70
2022/08/28 02:50:18;;;;;;;45.22;29.77;;;18.10;99.90;;;;;;2113083;28;20416;-69
2022/08/28 02:51:19;;;;;;;44.65;29.23;;;18.10;99.90;;;;;;2113138;28;20032;-70
2022/08/28 02:52:21;;;;;;;48.72;31.80;;;18.10;99.90;;;;;;2112461;28;20103;-69
2022/08/28 02:53:22;;;;;;;44.80;31.63;;;18.10;99.90;;;;;;2112831;28;20131;-69
2022/08/28 02:54:25;;;;;;;47.85;30.85;;;18.10;99.90;;;;;;2113321;28;20122;-69
2022/08/28 02:55:27;;;;;;;48.25;31.38;;;18.10;99.90;;;;;;2112496;28;20036;-69
2022/08/28 02:56:28;;;;;;;46.50;32.67;;;18.10;99.90;;;;;;2112753;28;20039;-69
2022/08/28 02:57:29;;;;;;;44.38;31.23;;;18.00;99.90;;;;;;2112691;28;20062;-69
2022/08/28 02:58:31;;;;;;;47.17;31.77;;;18.10;99.90;;;;;;2113090;28;20031;-69
2022/08/28 02:59:33;;;;;;;47.67;30.98;;;18.10;99.90;;;;;;2113060;28;20106;-69
2022/08/28 03:00:35;;;;;;;40.42;28.90;;;18.00;99.90;;;;;;2104912;28;20036;-70
2022/08/28 03:01:36;;;;;;;37.25;26.27;;;18.00;99.90;;;;;;2104542;28;20020;-69
2022/08/28 03:02:38;;;;;;;46.13;31.30;;;18.00;99.90;;;;;;2112929;28;20518;-70
2022/08/28 03:03:48;;;;;;;47.28;32.05;;;18.10;99.90;;;;;;2113453;28;20027;-69
2022/08/28 03:04:52;;;;;;;41.03;29.00;;;18.10;99.90;;;;;;2112663;28;20023;-69
2022/08/28 03:05:54;;;;;;;47.95;30.73;;;18.10;99.90;;;;;;2113063;28;20798;-69
2022/08/28 03:06:56;;;;;;;46.08;30.50;;;18.10;99.90;;;;;;2112716;28;20031;-70
2022/08/28 03:07:57;;;;;;;45.35;30.27;;;18.00;99.90;;;;;;2112776;28;20023;-70
2022/08/28 03:09:01;;;;;;;45.13;30.90;;;18.00;99.90;;;;;;2113412;28;20020;-69
2022/08/28 03:10:04;;;;;;;40.55;28.60;;;18.00;99.90;;;;;;2113381;28;20031;-69
2022/08/28 03:11:05;;;;;;;39.10;26.30;;;18.00;99.90;;;;;;2113489;28;20035;-70
2022/08/28 03:12:09;;;;;;;47.10;31.33;;;18.00;99.90;;;;;;2113533;28;20027;-72
2022/08/28 03:13:10;;;;;;;40.90;29.17;;;18.10;99.90;;;;;;2112985;28;20134;-69
2022/08/28 03:14:10;;;;;;;44.92;30.27;;;18.00;99.90;;;;;;2112912;28;20513;-69
2022/08/28 03:15:11;;;;;;;40.90;28.15;;;18.10;99.90;;;;;;2113383;28;20020;-69
2022/08/28 03:16:12;;;;;;;49.40;31.88;;;18.10;99.90;;;;;;2113542;28;20385;-70
2022/08/28 03:17:13;;;;;;;49.42;31.63;;;18.10;99.90;;;;;;2112948;28;20027;-70
2022/08/28 03:18:14;;;;;;;41.28;28.70;;;18.00;99.90;;;;;;2112753;28;20016;-70
2022/08/28 03:19:18;;;;;;;40.15;27.83;;;18.10;99.90;;;;;;2104419;28;20087;-69
2022/08/28 03:20:19;;;;;;;46.38;30.08;;;18.00;99.90;;;;;;2112864;28;20031;-69
2022/08/28 03:21:20;;;;;;;47.35;30.88;;;18.00;99.90;;;;;;2113397;28;20028;-69
2022/08/28 03:23:25;;;;;;;45.08;30.77;;;18.00;99.90;;;;;;2113827;28;20459;-69
2022/08/28 03:23:41;;;;;;;40.88;30.33;;;18.00;99.90;;;;;;2113624;28;20108;-69
2022/08/28 03:24:43;;;;;;;45.22;30.85;;;18.00;99.90;;;;;;2113510;28;20040;-70
2022/08/28 03:25:44;;;;;;;45.35;29.88;;;18.00;99.90;;;;;;2113033;28;20470;-70
2022/08/28 03:26:45;;;;;;;44.22;29.83;;;18.00;99.90;;;;;;2113097;28;20034;-70
2022/08/28 03:27:46;;;;;;;45.15;30.95;;;18.00;99.90;;;;;;2113135;28;20019;-70
2022/08/28 03:28:51;;;;;;;43.95;29.88;;;18.00;99.90;;;;;;2113356;28;20028;-70
2022/08/28 03:29:52;;;;;;;45.08;29.58;;;18.00;99.90;;;;;;2112697;28;20031;-69
2022/08/28 03:30:53;;;;;;;45.45;28.90;;;18.00;99.90;;;;;;2113495;28;20028;-70
2022/08/28 03:31:59;;;;;;;42.65;29.27;;;18.00;99.90;;;;;;2114081;28;20057;-70
2022/08/28 03:33:01;;;;;;;35.60;25.70;;;18.00;99.90;;;;;;2113967;28;20675;-70
2022/08/28 03:34:02;;;;;;;37.42;25.55;;;18.00;99.90;;;;;;2112953;28;20081;-69
2022/08/28 03:35:06;;;;;;;42.60;28.98;;;18.00;99.90;;;;;;2112807;28;20489;-70
2022/08/28 03:36:09;;;;;;;38.97;27.60;;;18.00;99.90;;;;;;2113552;28;20027;-68
2022/08/28 03:37:12;;;;;;;36.90;26.92;;;18.00;99.90;;;;;;2113099;28;20024;-69
2022/08/28 03:38:20;;;;;;;39.88;26.33;;;18.00;99.90;;;;;;2113685;28;20028;-70
2022/08/28 03:39:21;;;;;;;40.35;28.13;;;18.00;99.90;;;;;;2113720;28;20054;-70
2022/08/28 03:40:25;;;;;;;33.58;24.48;;;18.00;99.90;;;;;;2112915;28;20028;-69
2022/08/28 03:41:28;;;;;;;32.88;23.63;;;18.00;99.90;;;;;;2103882;28;20084;-70
2022/08/28 03:42:28;;;;;;;33.45;23.83;;;18.00;99.90;;;;;;2112472;28;20031;-70
2022/08/28 03:43:30;;;;;;;39.10;26.13;;;18.00;99.90;;;;;;2112152;28;20035;-69
2022/08/28 03:44:30;;;;;;;41.38;25.52;;;18.00;99.90;;;;;;2104041;28;20103;-69
2022/08/28 03:45:31;;;;;;;31.05;23.45;;;18.00;99.90;;;;;;2112427;28;20410;-69
2022/08/28 03:46:32;;;;;;;31.95;22.25;;;18.00;99.90;;;;;;2112770;28;20127;-69
2022/08/28 03:47:38;;;;;;;33.40;23.00;;;17.90;99.90;;;;;;2111958;28;20102;-70
2022/08/28 03:48:40;;;;;;;31.02;21.80;;;17.90;99.90;;;;;;2112206;28;20141;-69
2022/08/28 03:49:41;;;;;;;31.63;21.33;;;18.00;99.90;;;;;;2112479;28;20097;-68
2022/08/28 03:50:41;;;;;;;27.15;20.30;;;18.00;99.90;;;;;;2112153;28;20048;-69
2022/08/28 03:51:42;;;;;;;25.63;19.10;;;18.00;99.90;;;;;;2112720;28;20374;-70
2022/08/28 03:52:43;;;;;;;27.25;20.02;;;18.00;99.90;;;;;;2112198;28;20031;-69
2022/08/28 03:53:44;;;;;;;28.08;19.42;;;18.00;99.90;;;;;;2112276;28;20191;-68
2022/08/28 03:54:45;;;;;;;30.55;18.55;;;18.00;99.90;;;;;;2112408;28;20468;-68
2022/08/28 03:55:46;;;;;;;27.05;20.05;;;17.90;99.90;;;;;;2112108;28;20091;-68
2022/08/28 03:56:46;;;;;;;26.33;19.45;;;18.00;99.90;;;;;;2112946;28;20019;-68
2022/08/28 03:57:47;;;;;;;26.55;18.75;;;18.00;99.90;;;;;;2112835;28;20110;-69
2022/08/28 03:58:53;;;;;;;27.10;19.23;;;18.00;99.90;;;;;;2113979;28;20047;-69
2022/08/28 03:59:54;;;;;;;31.45;19.15;;;18.00;99.90;;;;;;2114616;28;20024;-68
2022/08/28 04:00:55;;;;;;;21.25;16.85;;;18.00;99.90;;;;;;2114613;27;20031;-69
2022/08/28 04:01:56;;;;;;;23.88;17.73;;;18.00;99.90;;;;;;2113985;28;20034;-69
2022/08/28 04:02:56;;;;;;;31.48;19.30;;;18.00;99.90;;;;;;2113757;28;20031;-69
2022/08/28 04:03:57;;;;;;;28.30;17.60;;;18.00;99.90;;;;;;2114521;28;20552;-69
2022/08/28 04:04:57;;;;;;;24.77;16.70;;;18.00;99.90;;;;;;2114520;28;20031;-69
2022/08/28 04:05:59;;;;;;;24.13;17.45;;;17.90;99.90;;;;;;2114518;28;20038;-70
2022/08/28 04:07:00;;;;;;;23.48;17.50;;;17.90;99.90;;;;;;2114761;28;20023;-69
2022/08/28 04:08:01;;;;;;;25.90;17.45;;;17.90;99.90;;;;;;2114400;28;20038;-69
2022/08/28 04:09:02;;;;;;;22.75;16.98;;;17.90;99.90;;;;;;2114369;27;20041;-69
2022/08/28 04:10:03;;;;;;;24.35;15.68;;;17.90;99.90;;;;;;2114006;28;20054;-69
2022/08/28 04:11:05;;;;;;;24.38;16.00;;;17.90;99.90;;;;;;2113798;28;20058;-69
2022/08/28 04:12:07;;;;;;;27.40;16.65;;;17.80;99.90;;;;;;2114220;28;20023;-68
2022/08/28 04:13:08;;;;;;;23.67;15.73;;;17.90;99.90;;;;;;2113640;28;20020;-68
2022/08/28 04:14:10;;;;;;;25.40;16.38;;;17.90;99.90;;;;;;2105080;28;20028;-68
2022/08/28 04:15:11;;;;;;;24.92;17.13;;;17.90;99.90;;;;;;2113582;28;20478;-70
2022/08/28 04:16:15;;;;;;;25.60;16.52;;;17.80;99.90;;;;;;2113640;28;20028;-69
2022/08/28 04:17:16;;;;;;;24.95;16.50;;;17.80;99.90;;;;;;2113494;28;20020;-68
2022/08/28 04:18:17;;;;;;;24.42;16.67;;;17.90;99.90;;;;;;2114103;28;20557;-69
2022/08/28 04:19:17;;;;;;;21.60;15.35;;;17.80;99.90;;;;;;2114141;28;20066;-69
2022/08/28 04:20:19;;;;;;;22.10;15.48;;;17.90;99.90;;;;;;2113474;28;20031;-68
2022/08/28 04:21:22;;;;;;;24.85;17.67;;;17.90;99.90;;;;;;2113313;28;20027;-69
2022/08/28 04:22:23;;;;;;;23.85;18.02;;;17.90;99.90;;;;;;2114376;28;20039;-69
2022/08/28 04:23:23;;;;;;;27.98;18.13;;;17.90;99.90;;;;;;2113746;28;20091;-68
2022/08/28 04:24:24;;;;;;;28.05;18.70;;;17.90;99.90;;;;;;2113621;28;20028;-69
2022/08/28 04:25:25;;;;;;;26.90;18.98;;;17.90;99.90;;;;;;2113516;28;20185;-68
2022/08/28 04:26:26;;;;;;;23.73;17.10;;;17.90;99.90;;;;;;2113682;28;20024;-68
2022/08/28 04:27:27;;;;;;;28.38;19.55;;;17.90;99.90;;;;;;2114003;28;20628;-69
2022/08/28 04:28:28;;;;;;;30.05;20.08;;;17.90;99.90;;;;;;2113942;28;20038;-69
2022/08/28 04:29:29;;;;;;;28.25;20.40;;;17.90;99.90;;;;;;2114342;28;20432;-69
2022/08/28 04:30:29;;;;;;;29.08;20.08;;;17.90;99.90;;;;;;2114122;28;20110;-70
2022/08/28 04:31:30;;;;;;;29.48;20.45;;;17.80;99.90;;;;;;2113875;28;20027;-69
2022/08/28 04:32:34;;;;;;;30.27;20.95;;;17.90;99.90;;;;;;2114136;28;20032;-69
2022/08/28 04:33:35;;;;;;;29.25;20.65;;;17.80;99.90;;;;;;2114144;28;20036;-69
2022/08/28 04:34:37;;;;;;;25.17;19.70;;;17.80;99.90;;;;;;2114138;28;20028;-69
2022/08/28 04:35:40;;;;;;;23.92;17.65;;;17.80;99.90;;;;;;2114125;28;20111;-69
2022/08/28 04:36:41;;;;;;;28.95;19.90;;;17.80;99.90;;;;;;2114200;28;20397;-70
2022/08/28 04:37:44;;;;;;;28.42;18.58;;;17.80;99.90;;;;;;2114000;28;20027;-69
2022/08/28 04:38:45;;;;;;;27.25;20.35;;;17.80;99.90;;;;;;2114175;28;20024;-69
2022/08/28 04:39:45;;;;;;;36.00;20.48;;;17.80;99.90;;;;;;2114101;28;20448;-69
2022/08/28 04:40:46;;;;;;;29.33;19.90;;;17.80;99.90;;;;;;2114201;28;20084;-69
2022/08/28 04:41:48;;;;;;;30.17;20.25;;;17.90;99.90;;;;;;2114042;28;20033;-69
2022/08/28 04:42:50;;;;;;;27.67;18.60;;;17.80;99.90;;;;;;2113854;28;20020;-70
2022/08/28 04:43:51;;;;;;;29.77;19.42;;;17.80;99.90;;;;;;2113995;28;20059;-68
2022/08/28 04:44:57;;;;;;;26.83;18.77;;;17.80;99.90;;;;;;2114044;28;20023;-69
2022/08/28 04:46:02;;;;;;;26.08;19.38;;;17.80;99.90;;;;;;2113991;28;20147;-70
2022/08/28 04:47:02;;;;;;;28.25;19.60;;;17.80;99.90;;;;;;2114061;28;20028;-69
2022/08/28 04:48:04;;;;;;;24.25;17.30;;;17.80;99.90;;;;;;2113916;28;20504;-69
2022/08/28 04:49:04;;;;;;;32.00;19.25;;;17.80;99.90;;;;;;2114190;28;20034;-69
2022/08/28 04:50:06;;;;;;;27.80;17.92;;;17.80;99.90;;;;;;2114052;28;20039;-69
2022/08/28 04:51:09;;;;;;;26.15;17.98;;;17.80;99.90;;;;;;2114042;28;20035;-70
2022/08/28 04:52:10;;;;;;;25.23;17.33;;;17.70;99.90;;;;;;2113733;28;20019;-69
2022/08/28 04:53:12;;;;;;;31.92;17.48;;;17.70;99.90;;;;;;2113491;28;20019;-69
2022/08/28 04:54:13;;;;;;;25.80;17.30;;;17.80;99.90;;;;;;2114098;28;20020;-70
2022/08/28 04:55:13;;;;;;;27.40;16.80;;;17.80;99.90;;;;;;2113348;28;20455;-72
2022/08/28 04:56:15;;;;;;;26.63;16.98;;;17.80;99.90;;;;;;2113686;28;20073;-70
2022/08/28 04:57:15;;;;;;;22.50;15.43;;;17.80;99.90;;;;;;2113433;28;20382;-69
2022/08/28 04:58:18;;;;;;;26.30;15.88;;;17.80;99.90;;;;;;2113458;28;20061;-70
2022/08/28 04:59:20;;;;;;;20.90;14.48;;;17.80;99.90;;;;;;2114133;28;20378;-69
2022/08/28 05:00:22;;;;;;;25.35;14.75;;;17.80;99.90;;;;;;2114259;28;20019;-69
2022/08/28 05:01:24;;;;;;;21.30;13.88;;;17.80;99.90;;;;;;2113618;28;20549;-69
2022/08/28 05:02:25;;;;;;;22.45;14.15;;;17.80;99.90;;;;;;2122523;27;20034;-71
2022/08/28 05:03:25;;;;;;;24.65;14.27;;;17.80;99.90;;;;;;2122854;27;20130;-72
2022/08/28 05:04:26;;;;;;;22.65;14.15;;;17.80;99.90;;;;;;2122598;27;20050;-74
2022/08/28 05:05:27;;;;;;;22.48;13.70;;;17.80;99.90;;;;;;2122234;27;20041;-73
2022/08/28 05:06:31;;;;;;;19.73;12.63;;;17.80;99.90;;;;;;2113541;28;20039;-74
2022/08/28 05:07:33;;;;;;;16.58;11.80;;;17.80;99.90;;;;;;2121863;27;20055;-71
2022/08/28 05:08:34;;;;;;;19.17;12.10;;;17.80;99.90;;;;;;2122473;27;20118;-72
2022/08/28 05:09:36;;;;;;;18.98;11.75;;;17.80;99.90;;;;;;2121936;27;20027;-73
2022/08/28 05:10:38;;;;;;;22.00;11.88;;;17.80;99.90;;;;;;2122084;27;20046;-72
2022/08/28 05:11:39;;;;;;;16.40;10.75;;;17.80;99.90;;;;;;2122522;27;20105;-72
2022/08/28 05:12:40;;;;;;;16.95;11.38;;;17.80;99.90;;;;;;2122395;27;20043;-72
2022/08/28 05:13:42;;;;;;;22.42;11.77;;;17.80;99.90;;;;;;2122454;27;20031;-73
2022/08/28 05:14:43;;;;;;;21.42;10.88;;;17.80;99.90;;;;;;2121709;27;20389;-71
2022/08/28 05:15:47;;;;;;;17.63;10.35;;;17.80;99.90;;;;;;2121844;27;20024;-71
2022/08/28 05:16:51;;;;;;;18.48;10.57;;;17.80;99.90;;;;;;2121801;27;20481;-71
2022/08/28 05:17:52;;;;;;;17.98;10.70;;;17.80;99.90;;;;;;2121860;27;20023;-71
2022/08/28 05:18:52;;;;;;;19.65;10.27;;;17.80;99.90;;;;;;2121341;27;20023;-71
2022/08/28 05:19:53;;;;;;;19.83;10.75;;;17.80;99.90;;;;;;2121602;27;20413;-72
2022/08/28 05:20:54;;;;;;;23.08;10.93;;;17.70;99.90;;;;;;2121711;27;20042;-71